Time;durP1;ratioP1;P1;durP2;ratioP2;P2;SDS_P1;SDS_P2;PMS_P1;PMS_P2;Temp;Humidity;BMP_temperature;BMP_pressure;BME280_temperature;BME280_humidity;BME280_pressure;Samples;Min_cycle;Max_cycle;Signal;HPM_P1;HPM_P2
2023/04/18 00:01:43;;;;;;;13.07;7.18;;;;;;;;;;5022603;28;20053;-69
2023/04/18 00:04:08;;;;;;;8.90;7.25;;;;;;;;;;5022363;28;20049;-66
2023/04/18 00:06:34;;;;;;;8.93;7.10;;;;;;;;;;5023213;28;20556;-69
2023/04/18 00:09:01;;;;;;;9.60;7.65;;;;;;;;;;5023043;28;20152;-69
2023/04/18 00:11:26;;;;;;;11.40;7.80;;;;;;;;;;5022220;28;20112;-69
2023/04/18 00:13:52;;;;;;;10.65;8.20;;;;;;;;;;5022309;28;20498;-67
2023/04/18 00:16:17;;;;;;;9.02;7.47;;;;;;;;;;5022047;28;20049;-68
2023/04/18 00:18:43;;;;;;;9.13;7.13;;;;;;;;;;5022636;28;20045;-69
2023/04/18 00:21:08;;;;;;;9.95;7.75;;;;;;;;;;5022910;28;20037;-67
2023/04/18 00:23:34;;;;;;;10.35;7.60;;;;;;;;;;5021534;28;20573;-69
2023/04/18 00:26:00;;;;;;;10.80;7.82;;;;;;;;;;5022430;28;20045;-67
2023/04/18 00:28:26;;;;;;;9.55;7.57;;;;;;;;;;5022015;28;20067;-69
2023/04/18 00:30:53;;;;;;;12.18;8.63;;;;;;;;;;5022357;28;20041;-69
2023/04/18 00:33:19;;;;;;;9.32;7.45;;;;;;;;;;5021262;28;20056;-69
2023/04/18 00:35:44;;;;;;;10.57;7.88;;;;;;;;;;5022017;28;20128;-67
2023/04/18 00:38:09;;;;;;;9.63;7.50;;;;;;;;;;5020502;28;20095;-70
2023/04/18 00:40:35;;;;;;;9.85;8.05;;;;;;;;;;5020891;28;20049;-67
2023/04/18 00:43:01;;;;;;;11.25;8.38;;;;;;;;;;5020797;28;20071;-68
2023/04/18 00:45:26;;;;;;;10.13;7.82;;;;;;;;;;5020742;28;20417;-67
2023/04/18 00:47:53;;;;;;;10.82;8.20;;;;;;;;;;5020853;28;20106;-67
2023/04/18 00:50:19;;;;;;;13.75;8.20;;;;;;;;;;5020326;28;20081;-68
2023/04/18 00:52:45;;;;;;;11.88;8.13;;;;;;;;;;5021924;28;20160;-69
2023/04/18 00:55:11;;;;;;;10.45;8.13;;;;;;;;;;5019816;28;20080;-68
2023/04/18 00:57:37;;;;;;;11.90;8.65;;;;;;;;;;5003621;28;20081;-67
2023/04/18 01:00:08;;;;;;;10.77;7.78;;;;;;;;;;5020831;28;20460;-67
2023/04/18 01:02:34;;;;;;;11.65;8.57;;;;;;;;;;5019644;28;20050;-68
2023/04/18 01:05:01;;;;;;;10.65;8.75;;;;;;;;;;5028327;28;20048;-69
2023/04/18 01:07:32;;;;;;;13.35;9.45;;;;;;;;;;5038037;28;20080;-69
2023/04/18 01:09:58;;;;;;;11.60;8.63;;;;;;;;;;5038544;28;20045;-67
2023/04/18 01:12:24;;;;;;;12.15;9.02;;;;;;;;;;5033338;28;20659;-69
2023/04/18 01:14:49;;;;;;;12.82;9.73;;;;;;;;;;5013292;28;20049;-69
2023/04/18 01:17:15;;;;;;;13.75;9.70;;;;;;;;;;5017126;28;20627;-71
2023/04/18 01:19:43;;;;;;;10.80;8.57;;;;;;;;;;5020410;28;20132;-68
2023/04/18 01:22:11;;;;;;;14.48;8.98;;;;;;;;;;5002899;28;20047;-68
2023/04/18 01:24:39;;;;;;;12.68;9.48;;;;;;;;;;5020204;28;20072;-68
2023/04/18 01:27:05;;;;;;;12.75;10.18;;;;;;;;;;5016013;28;20068;-68
2023/04/18 01:29:32;;;;;;;13.80;10.70;;;;;;;;;;5020262;28;20124;-68
2023/04/18 01:31:57;;;;;;;13.20;9.30;;;;;;;;;;5016053;28;20167;-70
2023/04/18 01:34:23;;;;;;;13.95;10.02;;;;;;;;;;5020283;28;20053;-67
2023/04/18 01:36:48;;;;;;;13.57;9.82;;;;;;;;;;5020429;28;20931;-69
2023/04/18 01:39:14;;;;;;;11.50;9.38;;;;;;;;;;5021680;28;20089;-67
2023/04/18 01:41:41;;;;;;;13.50;9.68;;;;;;;;;;5020964;28;20215;-69
2023/04/18 01:44:06;;;;;;;13.70;9.23;;;;;;;;;;5019459;28;20095;-69
2023/04/18 01:46:31;;;;;;;10.40;8.57;;;;;;;;;;5020244;28;20144;-69
2023/04/18 01:48:59;;;;;;;12.45;9.73;;;;;;;;;;5019016;28;20065;-69
2023/04/18 01:51:27;;;;;;;13.02;9.73;;;;;;;;;;5021257;28;20494;-68
2023/04/18 01:53:52;;;;;;;19.10;10.15;;;;;;;;;;5020909;28;20052;-68
2023/04/18 01:56:17;;;;;;;14.27;10.45;;;;;;;;;;5019230;28;20041;-68
2023/04/18 01:58:43;;;;;;;13.73;10.25;;;;;;;;;;5018659;28;20053;-68
2023/04/18 02:01:08;;;;;;;13.32;10.15;;;;;;;;;;5019632;28;20051;-68
2023/04/18 02:03:34;;;;;;;12.65;9.07;;;;;;;;;;5020650;28;20056;-69
2023/04/18 02:06:00;;;;;;;14.38;9.85;;;;;;;;;;5021096;28;20044;-68
2023/04/18 02:08:26;;;;;;;13.27;8.88;;;;;;;;;;5018801;28;20045;-69
2023/04/18 02:10:51;;;;;;;15.85;10.63;;;;;;;;;;5019780;28;20099;-67
2023/04/18 02:13:16;;;;;;;11.43;8.73;;;;;;;;;;5020336;28;20045;-68
2023/04/18 02:15:45;;;;;;;14.18;9.27;;;;;;;;;;5018668;28;20041;-68
2023/04/18 02:18:14;;;;;;;13.07;9.67;;;;;;;;;;5019948;28;20068;-68
2023/04/18 02:20:40;;;;;;;13.40;9.27;;;;;;;;;;5018336;28;20584;-67
2023/04/18 02:23:05;;;;;;;13.23;9.95;;;;;;;;;;5018686;28;20041;-68
2023/04/18 02:25:31;;;;;;;12.45;9.25;;;;;;;;;;5018966;28;20053;-67
2023/04/18 02:27:57;;;;;;;12.23;8.75;;;;;;;;;;5019093;28;20052;-67
2023/04/18 02:30:24;;;;;;;13.27;9.38;;;;;;;;;;5018339;28;20133;-69
2023/04/18 02:32:55;;;;;;;13.35;9.38;;;;;;;;;;5019752;28;20045;-67
2023/04/18 02:35:23;;;;;;;10.68;8.07;;;;;;;;;;5019059;28;20486;-67
2023/04/18 02:37:49;;;;;;;13.25;9.40;;;;;;;;;;5019118;28;20645;-67
2023/04/18 02:40:16;;;;;;;15.05;9.32;;;;;;;;;;5019557;28;20105;-67
2023/04/18 02:42:41;;;;;;;11.40;8.50;;;;;;;;;;5018060;28;20073;-67
2023/04/18 02:45:07;;;;;;;14.25;8.82;;;;;;;;;;5018397;28;20053;-67
2023/04/18 02:47:33;;;;;;;12.95;9.10;;;;;;;;;;5018986;28;20053;-68
2023/04/18 02:49:59;;;;;;;11.73;8.63;;;;;;;;;;5019996;28;20038;-67
2023/04/18 02:52:26;;;;;;;11.68;9.00;;;;;;;;;;5001752;28;20187;-68
2023/04/18 02:54:51;;;;;;;14.88;8.68;;;;;;;;;;5017676;28;20140;-68
2023/04/18 02:57:22;;;;;;;14.35;9.70;;;;;;;;;;5018844;28;20045;-68
2023/04/18 03:00:08;;;;;;;12.35;9.07;;;;;;;;;;5008141;28;20045;-68
2023/04/18 03:02:54;;;;;;;11.27;8.45;;;;;;;;;;5018379;28;20073;-68
2023/04/18 03:05:38;;;;;;;13.80;9.85;;;;;;;;;;5030139;28;20159;-70
2023/04/18 03:08:04;;;;;;;13.43;10.23;;;;;;;;;;5022015;28;20041;-68
2023/04/18 03:10:30;;;;;;;14.15;9.90;;;;;;;;;;5037975;28;20052;-69
2023/04/18 03:12:56;;;;;;;12.50;9.13;;;;;;;;;;5037942;28;20044;-69
2023/04/18 03:15:22;;;;;;;13.85;10.40;;;;;;;;;;5037507;28;20049;-68
2023/04/18 03:17:49;;;;;;;15.30;10.27;;;;;;;;;;5038080;28;20072;-68
2023/04/18 03:20:15;;;;;;;15.27;10.00;;;;;;;;;;5021329;28;20047;-68
2023/04/18 03:22:40;;;;;;;13.77;9.75;;;;;;;;;;5018166;28;20053;-69
2023/04/18 03:25:06;;;;;;;15.00;10.27;;;;;;;;;;5018132;28;20506;-67
2023/04/18 03:27:42;;;;;;;13.57;9.73;;;;;;;;;;5014304;28;20053;-69
2023/04/18 03:30:09;;;;;;;15.98;10.38;;;;;;;;;;4998358;28;20048;-68
2023/04/18 03:32:37;;;;;;;13.52;10.10;;;;;;;;;;5014544;28;20942;-70
2023/04/18 03:35:03;;;;;;;14.95;10.75;;;;;;;;;;5017954;28;20131;-69
2023/04/18 03:37:28;;;;;;;15.52;11.30;;;;;;;;;;5014898;28;20042;-69
2023/04/18 03:39:56;;;;;;;16.90;11.45;;;;;;;;;;5034237;28;21406;-68
2023/04/18 03:42:25;;;;;;;22.02;12.68;;;;;;;;;;5015829;28;20503;-68
2023/04/18 03:44:50;;;;;;;19.48;12.68;;;;;;;;;;5016056;28;20107;-67
2023/04/18 03:47:15;;;;;;;19.70;13.27;;;;;;;;;;5029564;28;21018;-67
2023/04/18 03:49:46;;;;;;;15.80;10.88;;;;;;;;;;5014377;28;20052;-70
2023/04/18 03:52:12;;;;;;;16.10;11.73;;;;;;;;;;5018928;28;20454;-68
2023/04/18 03:54:37;;;;;;;17.38;12.23;;;;;;;;;;5012129;28;20057;-68
2023/04/18 03:57:03;;;;;;;16.02;11.07;;;;;;;;;;5018391;28;20399;-70
2023/04/18 03:59:30;;;;;;;19.02;12.20;;;;;;;;;;5017181;28;20069;-71
2023/04/18 04:01:55;;;;;;;20.65;14.25;;;;;;;;;;5013870;28;20072;-69
2023/04/18 04:04:21;;;;;;;20.45;13.13;;;;;;;;;;5017290;28;20931;-68
2023/04/18 04:06:46;;;;;;;16.58;11.75;;;;;;;;;;5017987;28;20080;-67
2023/04/18 04:09:12;;;;;;;20.25;14.43;;;;;;;;;;5019877;28;20056;-68
2023/04/18 04:11:38;;;;;;;17.50;12.52;;;;;;;;;;5032926;28;20132;-70
2023/04/18 04:14:06;;;;;;;17.73;12.52;;;;;;;;;;5040726;28;20513;-70
2023/04/18 04:16:37;;;;;;;18.50;12.73;;;;;;;;;;5012590;28;20822;-67
2023/04/18 04:19:04;;;;;;;17.52;11.82;;;;;;;;;;5016306;28;20063;-68
2023/04/18 04:21:36;;;;;;;;;;;;;;;;;;5017850;28;20042;-69
2023/04/18 04:24:03;;;;;;;19.73;12.73;;;;;;;;;;5021018;28;19968;-68
2023/04/18 04:26:34;;;;;;;17.17;10.90;;;;;;;;;;5024727;28;20103;-68
2023/04/18 04:29:12;;;;;;;23.40;14.30;;;;;;;;;;5041133;28;20355;-68
2023/04/18 04:31:38;;;;;;;21.48;13.48;;;;;;;;;;5027156;28;20048;-68
2023/04/18 04:34:04;;;;;;;21.67;13.15;;;;;;;;;;5020222;28;20429;-68
2023/04/18 04:36:32;;;;;;;21.92;14.40;;;;;;;;;;5019827;28;20146;-69
2023/04/18 04:38:58;;;;;;;19.50;13.23;;;;;;;;;;5020842;28;20514;-68
2023/04/18 04:41:36;;;;;;;21.20;14.48;;;;;;;;;;5021232;28;20053;-68
2023/04/18 04:44:03;;;;;;;22.15;13.90;;;;;;;;;;5035756;28;20038;-71
2023/04/18 04:46:32;;;;;;;22.08;13.77;;;;;;;;;;5019699;28;20041;-71
2023/04/18 04:48:59;;;;;;;21.15;12.18;;;;;;;;;;5019958;28;20119;-71
2023/04/18 04:51:26;;;;;;;21.92;13.95;;;;;;;;;;5020575;28;20532;-68
2023/04/18 04:53:52;;;;;;;23.25;14.38;;;;;;;;;;5020930;28;21072;-68
2023/04/18 04:56:18;;;;;;;20.45;14.30;;;;;;;;;;5019217;28;20529;-69
2023/04/18 04:58:44;;;;;;;24.10;13.63;;;;;;;;;;5022325;28;20049;-70
2023/04/18 05:01:22;;;;;;;20.48;13.02;;;;;;;;;;5031128;28;20045;-68
2023/04/18 05:03:50;;;;;;;21.73;14.55;;;;;;;;;;5026347;28;20629;-68
2023/04/18 05:06:19;;;;;;;21.48;14.93;;;;;;;;;;5020883;28;20049;-68
2023/04/18 05:08:46;;;;;;;19.90;13.07;;;;;;;;;;5021920;28;20045;-68
2023/04/18 05:11:11;;;;;;;21.27;12.90;;;;;;;;;;5021294;28;20894;-68
2023/04/18 05:13:37;;;;;;;21.02;12.88;;;;;;;;;;5019662;28;20037;-68
2023/04/18 05:16:03;;;;;;;20.75;14.07;;;;;;;;;;5020998;28;20041;-68
2023/04/18 05:18:28;;;;;;;22.73;14.27;;;;;;;;;;5020431;28;20052;-68
2023/04/18 05:20:54;;;;;;;21.90;13.48;;;;;;;;;;5020016;28;20044;-68
2023/04/18 05:23:20;;;;;;;19.98;12.98;;;;;;;;;;5021438;28;20921;-68
2023/04/18 05:25:45;;;;;;;19.67;13.02;;;;;;;;;;5021048;28;20127;-68
2023/04/18 05:28:10;;;;;;;18.85;13.00;;;;;;;;;;5020167;28;20045;-68
2023/04/18 05:30:36;;;;;;;16.58;11.77;;;;;;;;;;5025038;28;20445;-71
2023/04/18 05:33:01;;;;;;;20.98;12.65;;;;;;;;;;5033458;28;20041;-68
2023/04/18 05:35:26;;;;;;;18.98;11.95;;;;;;;;;;5021192;28;20052;-68
2023/04/18 05:37:52;;;;;;;18.95;12.38;;;;;;;;;;5020807;28;20402;-68
2023/04/18 05:40:17;;;;;;;18.60;12.38;;;;;;;;;;5019327;28;20045;-68
2023/04/18 05:42:42;;;;;;;19.08;12.25;;;;;;;;;;5021484;28;20049;-68
2023/04/18 05:45:08;;;;;;;20.95;12.80;;;;;;;;;;5021129;28;20616;-68
2023/04/18 05:47:34;;;;;;;23.98;12.93;;;;;;;;;;5021317;28;20418;-67
2023/04/18 05:49:59;;;;;;;21.70;13.40;;;;;;;;;;5020462;28;20041;-68
2023/04/18 05:52:25;;;;;;;22.02;13.73;;;;;;;;;;5020724;28;20041;-71
2023/04/18 05:54:51;;;;;;;20.98;12.85;;;;;;;;;;5020668;28;20045;-69
2023/04/18 05:57:16;;;;;;;17.50;12.18;;;;;;;;;;5021388;28;21041;-68
2023/04/18 05:59:42;;;;;;;17.15;11.90;;;;;;;;;;5021107;28;20157;-68
2023/04/18 06:02:12;;;;;;;15.95;10.80;;;;;;;;;;5019251;28;20046;-73
2023/04/18 06:04:41;;;;;;;17.95;11.50;;;;;;;;;;5020709;28;20063;-68
2023/04/18 06:07:07;;;;;;;15.85;11.48;;;;;;;;;;5020920;28;20072;-70
2023/04/18 06:09:32;;;;;;;18.23;12.52;;;;;;;;;;5021073;28;20045;-69
2023/04/18 06:11:58;;;;;;;17.85;11.23;;;;;;;;;;5019816;28;20060;-68
2023/04/18 06:14:23;;;;;;;17.25;11.38;;;;;;;;;;5020288;28;20132;-68
2023/04/18 06:16:49;;;;;;;16.98;11.80;;;;;;;;;;5020244;28;20148;-68
2023/04/18 06:19:14;;;;;;;18.10;12.00;;;;;;;;;;5020918;28;20148;-70
2023/04/18 06:21:41;;;;;;;22.92;14.13;;;;;;;;;;5020567;28;20075;-68
2023/04/18 06:24:07;;;;;;;22.02;12.25;;;;;;;;;;5019932;28;20095;-68
2023/04/18 06:26:33;;;;;;;19.65;12.73;;;;;;;;;;5019991;28;20288;-68
2023/04/18 06:28:58;;;;;;;15.25;10.25;;;;;;;;;;5020818;28;20156;-68
2023/04/18 06:31:23;;;;;;;22.42;13.18;;;;;;;;;;5020075;28;20056;-69
2023/04/18 06:33:49;;;;;;;21.70;14.27;;;;;;;;;;5019776;28;20045;-68
2023/04/18 06:36:15;;;;;;;18.35;12.82;;;;;;;;;;5019718;28;20734;-68
2023/04/18 06:38:40;;;;;;;21.83;13.02;;;;;;;;;;5019236;28;20671;-68
2023/04/18 06:41:06;;;;;;;21.33;13.60;;;;;;;;;;5028160;28;20055;-68
2023/04/18 06:43:31;;;;;;;22.13;13.13;;;;;;;;;;5040268;28;20098;-68
2023/04/18 06:45:57;;;;;;;23.85;14.10;;;;;;;;;;5039404;28;20045;-68
2023/04/18 06:48:23;;;;;;;19.75;13.02;;;;;;;;;;5039495;28;20059;-68
2023/04/18 06:50:48;;;;;;;18.88;12.85;;;;;;;;;;5040239;28;20037;-68
2023/04/18 06:53:14;;;;;;;18.83;12.90;;;;;;;;;;5039925;28;20389;-68
2023/04/18 06:55:39;;;;;;;17.40;10.95;;;;;;;;;;5039523;28;20064;-69
2023/04/18 06:58:05;;;;;;;17.80;12.57;;;;;;;;;;5038675;28;20037;-68
2023/04/18 07:00:30;;;;;;;17.88;12.55;;;;;;;;;;5039574;28;20591;-71
2023/04/18 07:02:56;;;;;;;22.48;13.68;;;;;;;;;;5040020;28;20480;-68
2023/04/18 07:05:21;;;;;;;17.13;11.13;;;;;;;;;;5039980;28;20787;-68
2023/04/18 07:07:46;;;;;;;17.73;12.07;;;;;;;;;;5039135;28;20056;-69
2023/04/18 07:10:12;;;;;;;18.83;12.65;;;;;;;;;;5039952;28;20048;-69
2023/04/18 07:12:37;;;;;;;17.88;12.23;;;;;;;;;;5039927;28;20052;-68
2023/04/18 07:15:03;;;;;;;19.17;12.90;;;;;;;;;;5038449;28;20037;-71
2023/04/18 07:17:29;;;;;;;16.88;9.93;;;;;;;;;;5039178;28;20056;-69
2023/04/18 07:19:54;;;;;;;17.48;11.80;;;;;;;;;;5039978;28;20052;-69
2023/04/18 07:22:21;;;;;;;16.58;11.50;;;;;;;;;;5039198;28;20159;-71
2023/04/18 07:24:46;;;;;;;17.88;11.88;;;;;;;;;;5039660;28;20053;-69
2023/04/18 07:27:11;;;;;;;18.73;10.45;;;;;;;;;;5040113;28;20048;-72
2023/04/18 07:29:37;;;;;;;16.70;12.23;;;;;;;;;;5039398;28;20056;-71
2023/04/18 07:32:02;;;;;;;16.75;11.55;;;;;;;;;;5039415;28;20095;-69
2023/04/18 07:34:28;;;;;;;16.38;11.85;;;;;;;;;;5038970;28;20128;-69
2023/04/18 07:36:55;;;;;;;18.05;11.82;;;;;;;;;;5038442;28;20049;-69
2023/04/18 07:39:21;;;;;;;13.48;9.75;;;;;;;;;;5038677;28;20056;-69
2023/04/18 07:41:47;;;;;;;15.63;10.95;;;;;;;;;;5039544;28;20052;-69
2023/04/18 07:44:12;;;;;;;15.55;9.38;;;;;;;;;;5039677;28;20056;-69
2023/04/18 07:46:37;;;;;;;15.70;10.80;;;;;;;;;;5043281;28;20079;-69
2023/04/18 07:49:03;;;;;;;18.48;11.73;;;;;;;;;;5043093;28;20041;-70
2023/04/18 07:51:32;;;;;;;20.70;11.23;;;;;;;;;;5042271;28;20045;-70
2023/04/18 07:53:58;;;;;;;15.00;9.27;;;;;;;;;;5043352;28;20051;-69
2023/04/18 07:56:24;;;;;;;16.30;11.68;;;;;;;;;;5042607;28;20049;-69
2023/04/18 07:58:50;;;;;;;18.27;10.75;;;;;;;;;;5043322;28;20110;-69
2023/04/18 08:01:17;;;;;;;16.90;10.85;;;;;;;;;;5041286;28;20052;-70
2023/04/18 08:03:45;;;;;;;17.38;10.75;;;;;;;;;;5042711;28;20049;-70
2023/04/18 08:06:10;;;;;;;13.77;8.80;;;;;;;;;;5041006;28;20032;-70
2023/04/18 08:08:35;;;;;;;18.45;11.95;;;;;;;;;;5043438;28;20702;-70
2023/04/18 08:11:01;;;;;;;17.58;10.70;;;;;;;;;;5041622;28;20954;-70
2023/04/18 08:13:26;;;;;;;16.95;10.73;;;;;;;;;;5042064;28;20531;-68
2023/04/18 08:15:52;;;;;;;13.93;9.90;;;;;;;;;;5042507;28;20935;-68
2023/04/18 08:18:18;;;;;;;17.00;10.48;;;;;;;;;;5042474;28;20045;-68
2023/04/18 08:20:44;;;;;;;14.88;10.73;;;;;;;;;;5042883;28;20076;-69
2023/04/18 08:23:10;;;;;;;17.88;10.82;;;;;;;;;;5042285;28;20096;-68
2023/04/18 08:25:35;;;;;;;13.18;9.40;;;;;;;;;;5042510;28;20041;-69
2023/04/18 08:28:01;;;;;;;16.55;10.23;;;;;;;;;;5042860;28;20048;-69
2023/04/18 08:30:26;;;;;;;14.85;10.43;;;;;;;;;;5041979;28;20070;-68
2023/04/18 08:32:52;;;;;;;17.10;10.77;;;;;;;;;;5042844;28;20079;-68
2023/04/18 08:35:17;;;;;;;20.40;9.73;;;;;;;;;;5041376;28;20056;-68
2023/04/18 08:37:42;;;;;;;16.25;10.38;;;;;;;;;;5042743;28;20053;-68
2023/04/18 08:40:08;;;;;;;15.05;10.20;;;;;;;;;;5042344;28;20052;-68
2023/04/18 08:42:36;;;;;;;15.25;9.15;;;;;;;;;;5042073;28;20040;-68
2023/04/18 08:45:03;;;;;;;15.43;10.18;;;;;;;;;;5042279;28;20069;-68
2023/04/18 08:47:28;;;;;;;15.23;10.02;;;;;;;;;;5041361;28;20053;-69
2023/04/18 08:49:55;;;;;;;14.88;10.10;;;;;;;;;;5042393;28;20051;-68
2023/04/18 08:52:24;;;;;;;12.35;9.55;;;;;;;;;;5030710;28;20049;-71
2023/04/18 08:54:53;;;;;;;14.63;10.18;;;;;;;;;;4992547;28;20045;-70
2023/04/18 08:57:32;;;;;;;14.52;10.07;;;;;;;;;;4980189;28;20050;-69
2023/04/18 09:00:01;;;;;;;14.93;9.68;;;;;;;;;;4993350;28;20046;-70
2023/04/18 09:02:41;;;;;;;14.10;8.77;;;;;;;;;;4985073;28;20491;-69
2023/04/18 09:05:30;;;;;;;13.80;8.70;;;;;;;;;;4985116;28;20057;-69
2023/04/18 09:08:21;;;;;;;14.30;9.02;;;;;;;;;;4989405;28;20089;-69
2023/04/18 09:11:41;;;;;;;12.00;8.50;;;;;;;;;;4969284;28;20866;-69
2023/04/18 09:14:06;;;;;;;12.63;8.88;;;;;;;;;;4916473;28;20641;-69
2023/04/18 09:16:55;;;;;;;12.90;8.70;;;;;;;;;;4938879;29;20062;-70
2023/04/18 09:19:27;;;;;;;13.68;8.77;;;;;;;;;;4933403;28;20049;-70
2023/04/18 09:22:03;;;;;;;;;;;;;;;;;;4950803;28;20093;-69
2023/04/18 09:24:32;;;;;;;17.33;9.63;;;;;;;;;;4958908;28;19948;-71
2023/04/18 09:26:58;;;;;;;17.85;10.05;;;;;;;;;;4951103;28;20050;-70
2023/04/18 09:30:13;;;;;;;12.90;8.63;;;;;;;;;;4941647;28;20047;-69
2023/04/18 09:33:01;;;;;;;16.75;9.95;;;;;;;;;;4925546;28;20094;-70
2023/04/18 09:35:27;;;;;;;13.45;8.52;;;;;;;;;;4936125;28;20047;-71
2023/04/18 09:37:56;;;;;;;13.02;9.38;;;;;;;;;;4947726;28;20648;-69
2023/04/18 09:40:27;;;;;;;13.73;9.60;;;;;;;;;;4942629;28;20070;-70
2023/04/18 09:43:16;;;;;;;13.25;9.60;;;;;;;;;;4937745;28;20047;-69
2023/04/18 09:46:03;;;;;;;12.13;8.50;;;;;;;;;;5006087;28;20049;-68
2023/04/18 09:48:29;;;;;;;13.15;8.25;;;;;;;;;;4994732;28;20450;-70
2023/04/18 09:51:04;;;;;;;13.40;8.38;;;;;;;;;;4995341;28;20565;-68
2023/04/18 09:53:30;;;;;;;11.82;8.15;;;;;;;;;;5001221;28;20071;-69
2023/04/18 09:56:08;;;;;;;18.05;9.13;;;;;;;;;;4990771;28;20045;-70
2023/04/18 09:58:40;;;;;;;15.23;8.85;;;;;;;;;;4964163;28;20117;-69
2023/04/18 10:01:06;;;;;;;;;;;;;;;;;;4946118;28;20101;-69
2023/04/18 10:03:46;;;;;;;12.38;9.38;;;;;;;;;;4945959;28;19926;-69
2023/04/18 10:06:15;;;;;;;13.00;8.95;;;;;;;;;;4953672;28;20049;-69
2023/04/18 10:08:45;;;;;;;12.18;8.75;;;;;;;;;;4984411;28;20053;-68
2023/04/18 10:11:13;;;;;;;11.63;8.88;;;;;;;;;;4977115;28;20104;-68
2023/04/18 10:13:41;;;;;;;14.43;9.52;;;;;;;;;;4985894;28;20188;-69
2023/04/18 10:16:10;;;;;;;12.77;8.77;;;;;;;;;;4990518;28;20053;-69
2023/04/18 10:18:39;;;;;;;14.93;8.55;;;;;;;;;;4978541;28;20055;-71
2023/04/18 10:21:07;;;;;;;10.98;7.97;;;;;;;;;;4987050;28;20133;-71
2023/04/18 10:23:38;;;;;;;11.07;7.72;;;;;;;;;;4985165;28;20054;-70
2023/04/18 10:26:09;;;;;;;13.98;8.82;;;;;;;;;;4988974;28;20041;-70
2023/04/18 10:28:57;;;;;;;14.63;8.73;;;;;;;;;;5036192;28;20057;-70
2023/04/18 10:31:31;;;;;;;11.98;8.60;;;;;;;;;;5038866;28;20567;-70
2023/04/18 10:34:05;;;;;;;11.65;8.45;;;;;;;;;;5038809;28;20091;-71
2023/04/18 10:36:41;;;;;;;14.93;8.73;;;;;;;;;;5027867;28;20112;-70
2023/04/18 10:39:21;;;;;;;12.80;8.30;;;;;;;;;;5051096;28;20868;-72
2023/04/18 10:41:49;;;;;;;12.60;8.63;;;;;;;;;;5039559;28;20121;-71
2023/04/18 10:44:22;;;;;;;11.38;8.23;;;;;;;;;;5044204;28;20132;-70
2023/04/18 10:46:51;;;;;;;12.48;8.45;;;;;;;;;;5038958;28;20088;-71
2023/04/18 10:49:30;;;;;;;11.90;8.25;;;;;;;;;;5037821;28;20063;-70
2023/04/18 10:52:01;;;;;;;12.65;8.63;;;;;;;;;;5043503;28;20124;-71
2023/04/18 10:54:50;;;;;;;10.88;7.40;;;;;;;;;;5036787;28;20048;-70
2023/04/18 10:57:20;;;;;;;12.57;8.07;;;;;;;;;;5039077;28;20040;-71
2023/04/18 10:59:53;;;;;;;12.45;7.75;;;;;;;;;;5027403;28;20048;-69
2023/04/18 11:02:31;;;;;;;11.07;8.43;;;;;;;;;;5037217;28;20060;-70
2023/04/18 11:05:04;;;;;;;13.27;8.40;;;;;;;;;;5038404;28;20053;-70
2023/04/18 11:07:48;;;;;;;9.65;7.47;;;;;;;;;;5039506;28;20091;-70
2023/04/18 11:10:23;;;;;;;10.70;6.85;;;;;;;;;;5033005;28;20044;-70
2023/04/18 11:12:53;;;;;;;9.82;7.22;;;;;;;;;;5038851;28;20037;-70
2023/04/18 11:15:23;;;;;;;12.15;7.28;;;;;;;;;;5039242;28;20072;-70
2023/04/18 11:18:03;;;;;;;11.30;7.35;;;;;;;;;;5040181;28;20064;-70
2023/04/18 11:20:48;;;;;;;8.82;6.75;;;;;;;;;;5041826;28;20053;-70
2023/04/18 11:23:20;;;;;;;11.77;8.45;;;;;;;;;;5038326;28;20044;-70
2023/04/18 11:25:53;;;;;;;10.77;8.43;;;;;;;;;;5049883;28;20131;-70
2023/04/18 11:28:23;;;;;;;;;;;;;;;;;;4998352;28;20542;-71
2023/04/18 11:31:01;;;;;;;9.93;7.15;;;;;;;;;;4984408;28;19932;-69
2023/04/18 11:33:33;;;;;;;7.63;6.27;;;;;;;;;;4982537;28;20050;-70
2023/04/18 11:36:02;;;;;;;11.15;7.53;;;;;;;;;;4991253;28;20060;-70
2023/04/18 11:38:45;;;;;;;10.45;7.22;;;;;;;;;;4988870;28;20152;-70
2023/04/18 11:41:17;;;;;;;11.13;7.70;;;;;;;;;;4977602;28;20148;-71
2023/04/18 11:43:45;;;;;;;10.30;7.80;;;;;;;;;;4992563;28;20933;-71
2023/04/18 11:46:12;;;;;;;8.05;5.60;;;;;;;;;;4985314;28;20045;-73
2023/04/18 11:48:45;;;;;;;11.32;7.70;;;;;;;;;;4987663;28;20093;-69
2023/04/18 11:51:33;;;;;;;10.57;7.30;;;;;;;;;;5003734;28;20806;-71
2023/04/18 11:53:58;;;;;;;11.68;7.88;;;;;;;;;;5017694;28;20089;-71
2023/04/18 11:56:23;;;;;;;12.75;8.10;;;;;;;;;;5019431;28;20184;-70
2023/04/18 11:58:49;;;;;;;10.43;7.30;;;;;;;;;;5003309;28;20589;-70
2023/04/18 12:01:19;;;;;;;10.60;7.53;;;;;;;;;;5027105;28;20041;-70
2023/04/18 12:04:05;;;;;;;9.30;5.97;;;;;;;;;;5042476;28;20045;-69
2023/04/18 12:06:51;;;;;;;10.20;7.00;;;;;;;;;;5042390;28;20580;-69
2023/04/18 12:09:17;;;;;;;8.88;6.32;;;;;;;;;;5042545;28;20166;-72
2023/04/18 12:11:43;;;;;;;8.88;6.45;;;;;;;;;;5043025;28;20045;-69
2023/04/18 12:14:29;;;;;;;9.57;6.90;;;;;;;;;;5042195;28;20858;-69
2023/04/18 12:16:55;;;;;;;10.10;7.22;;;;;;;;;;5032353;28;20052;-68
2023/04/18 12:19:26;;;;;;;8.75;6.50;;;;;;;;;;5042806;28;20048;-69
2023/04/18 12:21:59;;;;;;;10.48;7.07;;;;;;;;;;5042625;28;20136;-68
2023/04/18 12:24:27;;;;;;;8.05;6.03;;;;;;;;;;5040707;28;20048;-69
2023/04/18 12:26:56;;;;;;;12.68;6.53;;;;;;;;;;5041521;28;20053;-70
2023/04/18 12:29:23;;;;;;;8.80;5.85;;;;;;;;;;5041983;28;20044;-69
2023/04/18 12:31:49;;;;;;;8.48;5.57;;;;;;;;;;5042235;28;20084;-70
2023/04/18 12:34:14;;;;;;;10.90;5.85;;;;;;;;;;5041201;28;21094;-68
2023/04/18 12:36:41;;;;;;;8.57;5.90;;;;;;;;;;5041989;28;20068;-69
2023/04/18 12:39:06;;;;;;;9.02;5.68;;;;;;;;;;5042463;28;20071;-68
2023/04/18 12:41:32;;;;;;;8.73;5.95;;;;;;;;;;5042184;28;20460;-69
2023/04/18 12:43:57;;;;;;;9.23;6.00;;;;;;;;;;5040743;28;20124;-69
2023/04/18 12:46:23;;;;;;;7.28;5.68;;;;;;;;;;5039186;28;20049;-68
2023/04/18 12:48:48;;;;;;;10.85;5.90;;;;;;;;;;5041728;28;20106;-69
2023/04/18 12:51:13;;;;;;;12.80;5.70;;;;;;;;;;5041346;28;20413;-67
2023/04/18 12:53:39;;;;;;;8.13;6.20;;;;;;;;;;5042010;28;20049;-68
2023/04/18 12:56:05;;;;;;;10.25;7.35;;;;;;;;;;5041784;28;20090;-69
2023/04/18 12:58:31;;;;;;;9.13;6.28;;;;;;;;;;5041067;28;20099;-72
2023/04/18 13:00:58;;;;;;;9.80;6.70;;;;;;;;;;5041489;28;20045;-68
2023/04/18 13:03:24;;;;;;;9.85;7.22;;;;;;;;;;5041976;28;20048;-68
2023/04/18 13:05:51;;;;;;;9.07;6.60;;;;;;;;;;5041814;28;20051;-68
2023/04/18 13:08:17;;;;;;;11.65;7.00;;;;;;;;;;5040119;28;20044;-69
2023/04/18 13:10:43;;;;;;;11.13;7.40;;;;;;;;;;5041538;28;20059;-68
2023/04/18 13:13:13;;;;;;;10.50;6.93;;;;;;;;;;5041380;28;20045;-71
2023/04/18 13:15:38;;;;;;;9.90;7.32;;;;;;;;;;5039847;28;20051;-68
2023/04/18 13:18:05;;;;;;;10.23;7.75;;;;;;;;;;5041923;28;20045;-68
2023/04/18 13:20:31;;;;;;;9.68;7.10;;;;;;;;;;5040442;28;20060;-70
2023/04/18 13:22:57;;;;;;;9.82;6.78;;;;;;;;;;5041138;28;20102;-70
2023/04/18 13:25:22;;;;;;;11.73;7.43;;;;;;;;;;5041495;28;20049;-70
2023/04/18 13:27:49;;;;;;;12.02;7.40;;;;;;;;;;5041749;28;20045;-68
2023/04/18 13:30:15;;;;;;;12.05;7.43;;;;;;;;;;5040519;28;20037;-70
2023/04/18 13:32:42;;;;;;;9.13;6.63;;;;;;;;;;5040425;28;20107;-70
2023/04/18 13:35:08;;;;;;;9.93;7.22;;;;;;;;;;5039770;28;20882;-70
2023/04/18 13:37:34;;;;;;;12.88;7.32;;;;;;;;;;5041703;28;20048;-71
2023/04/18 13:39:59;;;;;;;11.32;7.75;;;;;;;;;;5039519;28;20144;-69
2023/04/18 13:42:25;;;;;;;10.73;6.80;;;;;;;;;;5038949;28;20075;-68
2023/04/18 13:44:50;;;;;;;11.68;7.10;;;;;;;;;;5040733;28;20057;-68
2023/04/18 13:47:16;;;;;;;9.48;6.05;;;;;;;;;;5039155;28;20063;-67
2023/04/18 13:49:41;;;;;;;7.97;5.63;;;;;;;;;;5041089;28;20047;-71
2023/04/18 13:52:07;;;;;;;10.23;5.22;;;;;;;;;;5039639;28;20124;-70
2023/04/18 13:54:32;;;;;;;8.27;5.72;;;;;;;;;;5038866;28;20045;-69
2023/04/18 13:57:00;;;;;;;7.85;5.63;;;;;;;;;;5040442;28;20053;-72
2023/04/18 13:59:26;;;;;;;9.30;6.38;;;;;;;;;;5041151;28;20044;-71
2023/04/18 14:01:53;;;;;;;10.18;6.70;;;;;;;;;;5040532;28;20056;-69
2023/04/18 14:04:22;;;;;;;17.33;7.40;;;;;;;;;;5039744;28;20072;-69
2023/04/18 14:06:47;;;;;;;9.68;6.60;;;;;;;;;;5040649;28;20051;-70
2023/04/18 14:09:13;;;;;;;9.65;6.25;;;;;;;;;;5040881;28;20045;-70
2023/04/18 14:11:39;;;;;;;9.30;6.78;;;;;;;;;;5040579;28;20044;-69
2023/04/18 14:14:05;;;;;;;8.65;6.13;;;;;;;;;;5040588;28;20106;-69
2023/04/18 14:16:32;;;;;;;9.38;6.10;;;;;;;;;;5039171;28;20059;-68
2023/04/18 14:18:59;;;;;;;10.93;6.68;;;;;;;;;;5040742;28;20076;-70
2023/04/18 14:21:25;;;;;;;9.23;6.35;;;;;;;;;;5040310;28;20057;-69
2023/04/18 14:23:51;;;;;;;9.75;6.47;;;;;;;;;;5040306;28;20049;-69
2023/04/18 14:26:17;;;;;;;7.15;5.40;;;;;;;;;;5039375;28;20037;-68
2023/04/18 14:28:44;;;;;;;7.15;5.30;;;;;;;;;;5039030;28;20488;-69
2023/04/18 14:31:10;;;;;;;8.45;6.53;;;;;;;;;;5040381;28;21007;-72
2023/04/18 14:33:37;;;;;;;10.60;5.53;;;;;;;;;;5040416;28;20055;-69
2023/04/18 14:36:03;;;;;;;10.00;6.05;;;;;;;;;;5040510;28;20064;-71